sensor_id;sensor_type;location;lat;lon;timestamp;temperature;humidity
71843;DHT22;59691;-36.632;-64.320;2023-03-11T00:00:05;26.20;69.60
71843;DHT22;59691;-36.632;-64.320;2023-03-11T00:02:38;26.20;69.60
71843;DHT22;59691;-36.632;-64.320;2023-03-11T00:05:05;26.20;69.60
71843;DHT22;59691;-36.632;-64.320;2023-03-11T00:07:31;26.20;69.70
71843;DHT22;59691;-36.632;-64.320;2023-03-11T00:09:58;26.20;69.80
71843;DHT22;59691;-36.632;-64.320;2023-03-11T00:12:24;26.20;69.80
71843;DHT22;59691;-36.632;-64.320;2023-03-11T00:14:50;26.20;70.00
71843;DHT22;59691;-36.632;-64.320;2023-03-11T00:17:17;26.20;70.10
71843;DHT22;59691;-36.632;-64.320;2023-03-11T00:19:43;26.20;70.20
71843;DHT22;59691;-36.632;-64.320;2023-03-11T00:22:10;26.20;70.40
71843;DHT22;59691;-36.632;-64.320;2023-03-11T00:24:36;26.20;70.40
71843;DHT22;59691;-36.632;-64.320;2023-03-11T00:27:02;26.20;70.60
71843;DHT22;59691;-36.632;-64.320;2023-03-11T00:29:29;26.20;70.70
71843;DHT22;59691;-36.632;-64.320;2023-03-11T00:31:55;26.20;70.80
71843;DHT22;59691;-36.632;-64.320;2023-03-11T00:34:21;26.20;71.00
71843;DHT22;59691;-36.632;-64.320;2023-03-11T00:36:48;26.20;71.00
71843;DHT22;59691;-36.632;-64.320;2023-03-11T00:39:15;26.20;71.10
71843;DHT22;59691;-36.632;-64.320;2023-03-11T00:41:41;26.20;71.20
71843;DHT22;59691;-36.632;-64.320;2023-03-11T00:44:07;26.20;71.40
71843;DHT22;59691;-36.632;-64.320;2023-03-11T00:46:34;26.20;71.40
71843;DHT22;59691;-36.632;-64.320;2023-03-11T00:49:00;26.20;71.50
71843;DHT22;59691;-36.632;-64.320;2023-03-11T00:51:26;26.10;71.70
71843;DHT22;59691;-36.632;-64.320;2023-03-11T00:53:54;26.20;72.10
71843;DHT22;59691;-36.632;-64.320;2023-03-11T00:56:20;26.10;71.90
71843;DHT22;59691;-36.632;-64.320;2023-03-11T00:58:46;26.20;72.20
71843;DHT22;59691;-36.632;-64.320;2023-03-11T01:01:13;26.10;71.70
71843;DHT22;59691;-36.632;-64.320;2023-03-11T01:03:40;26.10;72.40
71843;DHT22;59691;-36.632;-64.320;2023-03-11T01:06:07;26.10;72.70
71843;DHT22;59691;-36.632;-64.320;2023-03-11T01:08:33;26.10;72.80
71843;DHT22;59691;-36.632;-64.320;2023-03-11T01:11:00;26.10;73.00
71843;DHT22;59691;-36.632;-64.320;2023-03-11T01:13:27;26.10;73.20
71843;DHT22;59691;-36.632;-64.320;2023-03-11T01:15:54;26.10;73.40
71843;DHT22;59691;-36.632;-64.320;2023-03-11T01:18:20;26.10;73.60
71843;DHT22;59691;-36.632;-64.320;2023-03-11T01:20:47;26.10;73.80
71843;DHT22;59691;-36.632;-64.320;2023-03-11T01:23:14;26.10;73.90
71843;DHT22;59691;-36.632;-64.320;2023-03-11T01:25:41;26.10;74.10
71843;DHT22;59691;-36.632;-64.320;2023-03-11T01:28:07;26.10;74.20
71843;DHT22;59691;-36.632;-64.320;2023-03-11T01:30:34;26.10;74.30
71843;DHT22;59691;-36.632;-64.320;2023-03-11T01:33:01;26.10;74.50
71843;DHT22;59691;-36.632;-64.320;2023-03-11T01:35:28;26.10;74.60
71843;DHT22;59691;-36.632;-64.320;2023-03-11T01:37:55;26.10;74.70
71843;DHT22;59691;-36.632;-64.320;2023-03-11T01:40:39;26.10;75.00
71843;DHT22;59691;-36.632;-64.320;2023-03-11T01:43:33;26.10;75.00
71843;DHT22;59691;-36.632;-64.320;2023-03-11T01:48:19;26.10;75.40
71843;DHT22;59691;-36.632;-64.320;2023-03-11T01:50:46;26.10;75.60
71843;DHT22;59691;-36.632;-64.320;2023-03-11T01:53:14;26.10;75.70
71843;DHT22;59691;-36.632;-64.320;2023-03-11T01:55:42;26.10;75.80
71843;DHT22;59691;-36.632;-64.320;2023-03-11T01:58:10;26.00;75.80
71843;DHT22;59691;-36.632;-64.320;2023-03-11T02:00:37;26.00;75.90
71843;DHT22;59691;-36.632;-64.320;2023-03-11T02:03:07;26.00;76.00
71843;DHT22;59691;-36.632;-64.320;2023-03-11T02:05:35;26.00;76.00
71843;DHT22;59691;-36.632;-64.320;2023-03-11T02:08:02;26.00;76.10
71843;DHT22;59691;-36.632;-64.320;2023-03-11T02:10:29;26.00;76.20
71843;DHT22;59691;-36.632;-64.320;2023-03-11T02:12:55;26.00;76.30
71843;DHT22;59691;-36.632;-64.320;2023-03-11T02:15:22;26.00;76.30
71843;DHT22;59691;-36.632;-64.320;2023-03-11T02:17:49;26.00;76.30
71843;DHT22;59691;-36.632;-64.320;2023-03-11T02:20:51;26.00;76.40
71843;DHT22;59691;-36.632;-64.320;2023-03-11T02:23:08;26.00;76.50
71843;DHT22;59691;-36.632;-64.320;2023-03-11T02:28:33;26.00;76.60
71843;DHT22;59691;-36.632;-64.320;2023-03-11T02:31:00;26.00;76.70
71843;DHT22;59691;-36.632;-64.320;2023-03-11T02:33:27;25.90;76.70
71843;DHT22;59691;-36.632;-64.320;2023-03-11T02:35:56;25.90;76.90
71843;DHT22;59691;-36.632;-64.320;2023-03-11T02:38:22;25.90;76.90
71843;DHT22;59691;-36.632;-64.320;2023-03-11T02:40:58;25.90;77.10
71843;DHT22;59691;-36.632;-64.320;2023-03-11T02:45:58;25.90;77.30
71843;DHT22;59691;-36.632;-64.320;2023-03-11T02:48:24;25.90;77.40
71843;DHT22;59691;-36.632;-64.320;2023-03-11T02:50:51;25.90;77.40
71843;DHT22;59691;-36.632;-64.320;2023-03-11T02:53:17;25.90;77.50
71843;DHT22;59691;-36.632;-64.320;2023-03-11T02:55:44;25.90;77.70
71843;DHT22;59691;-36.632;-64.320;2023-03-11T02:58:10;25.90;77.70
71843;DHT22;59691;-36.632;-64.320;2023-03-11T03:00:36;25.90;77.80
71843;DHT22;59691;-36.632;-64.320;2023-03-11T03:03:03;25.90;77.80
71843;DHT22;59691;-36.632;-64.320;2023-03-11T03:05:29;25.90;77.90
71843;DHT22;59691;-36.632;-64.320;2023-03-11T03:07:56;25.80;77.80
71843;DHT22;59691;-36.632;-64.320;2023-03-11T03:10:23;25.80;77.90
71843;DHT22;59691;-36.632;-64.320;2023-03-11T03:12:49;25.90;78.20
71843;DHT22;59691;-36.632;-64.320;2023-03-11T03:15:16;25.80;78.30
71843;DHT22;59691;-36.632;-64.320;2023-03-11T03:17:42;25.80;78.30
71843;DHT22;59691;-36.632;-64.320;2023-03-11T03:20:09;25.80;77.90
71843;DHT22;59691;-36.632;-64.320;2023-03-11T03:22:37;25.80;78.60
71843;DHT22;59691;-36.632;-64.320;2023-03-11T03:25:03;25.80;78.70
71843;DHT22;59691;-36.632;-64.320;2023-03-11T03:27:30;25.80;78.80
71843;DHT22;59691;-36.632;-64.320;2023-03-11T03:29:56;25.80;78.90
71843;DHT22;59691;-36.632;-64.320;2023-03-11T03:32:23;25.80;78.90
71843;DHT22;59691;-36.632;-64.320;2023-03-11T03:34:49;25.80;79.00
71843;DHT22;59691;-36.632;-64.320;2023-03-11T03:37:15;25.80;79.00
71843;DHT22;59691;-36.632;-64.320;2023-03-11T03:39:41;25.70;79.10
71843;DHT22;59691;-36.632;-64.320;2023-03-11T03:42:08;25.70;79.20
71843;DHT22;59691;-36.632;-64.320;2023-03-11T03:44:34;25.70;79.30
71843;DHT22;59691;-36.632;-64.320;2023-03-11T03:47:00;25.70;79.30
71843;DHT22;59691;-36.632;-64.320;2023-03-11T03:49:27;25.70;79.50
71843;DHT22;59691;-36.632;-64.320;2023-03-11T03:51:53;25.70;79.50
71843;DHT22;59691;-36.632;-64.320;2023-03-11T03:54:19;25.70;79.60
71843;DHT22;59691;-36.632;-64.320;2023-03-11T03:56:46;25.70;79.70
71843;DHT22;59691;-36.632;-64.320;2023-03-11T03:59:12;25.70;79.70
71843;DHT22;59691;-36.632;-64.320;2023-03-11T04:01:38;25.70;79.80
71843;DHT22;59691;-36.632;-64.320;2023-03-11T04:04:05;25.70;79.90
71843;DHT22;59691;-36.632;-64.320;2023-03-11T04:06:31;25.70;79.90
71843;DHT22;59691;-36.632;-64.320;2023-03-11T04:08:58;25.70;80.00
71843;DHT22;59691;-36.632;-64.320;2023-03-11T04:11:25;25.60;79.90
71843;DHT22;59691;-36.632;-64.320;2023-03-11T04:13:51;25.60;79.90
71843;DHT22;59691;-36.632;-64.320;2023-03-11T04:16:18;25.60;79.90
71843;DHT22;59691;-36.632;-64.320;2023-03-11T04:18:45;25.60;80.00
71843;DHT22;59691;-36.632;-64.320;2023-03-11T04:21:12;25.60;80.00
71843;DHT22;59691;-36.632;-64.320;2023-03-11T04:23:38;25.60;80.00
71843;DHT22;59691;-36.632;-64.320;2023-03-11T04:26:04;25.60;80.00
71843;DHT22;59691;-36.632;-64.320;2023-03-11T04:28:31;25.60;80.00
71843;DHT22;59691;-36.632;-64.320;2023-03-11T04:30:57;25.60;80.00
71843;DHT22;59691;-36.632;-64.320;2023-03-11T04:33:23;25.60;80.00
71843;DHT22;59691;-36.632;-64.320;2023-03-11T04:35:50;25.50;79.90
71843;DHT22;59691;-36.632;-64.320;2023-03-11T04:38:16;25.50;79.90
71843;DHT22;59691;-36.632;-64.320;2023-03-11T04:40:42;25.50;79.90
71843;DHT22;59691;-36.632;-64.320;2023-03-11T04:43:09;25.50;79.90
71843;DHT22;59691;-36.632;-64.320;2023-03-11T04:45:38;25.50;79.90
71843;DHT22;59691;-36.632;-64.320;2023-03-11T04:48:05;25.50;79.90
71843;DHT22;59691;-36.632;-64.320;2023-03-11T04:50:32;25.50;79.90
71843;DHT22;59691;-36.632;-64.320;2023-03-11T04:52:58;25.50;79.90
71843;DHT22;59691;-36.632;-64.320;2023-03-11T04:55:24;25.50;79.90
71843;DHT22;59691;-36.632;-64.320;2023-03-11T04:57:51;25.50;79.90
71843;DHT22;59691;-36.632;-64.320;2023-03-11T05:00:17;25.40;79.70
71843;DHT22;59691;-36.632;-64.320;2023-03-11T05:02:49;25.40;79.70
71843;DHT22;59691;-36.632;-64.320;2023-03-11T05:05:15;25.40;79.70
71843;DHT22;59691;-36.632;-64.320;2023-03-11T05:07:43;25.40;79.60
71843;DHT22;59691;-36.632;-64.320;2023-03-11T05:10:10;25.40;79.60
71843;DHT22;59691;-36.632;-64.320;2023-03-11T05:12:36;25.40;79.60
71843;DHT22;59691;-36.632;-64.320;2023-03-11T05:15:03;25.40;79.50
71843;DHT22;59691;-36.632;-64.320;2023-03-11T05:17:29;25.40;79.50
71843;DHT22;59691;-36.632;-64.320;2023-03-11T05:19:56;25.40;79.50
71843;DHT22;59691;-36.632;-64.320;2023-03-11T05:22:22;25.40;79.40
71843;DHT22;59691;-36.632;-64.320;2023-03-11T05:24:49;25.40;79.40
71843;DHT22;59691;-36.632;-64.320;2023-03-11T05:27:15;25.40;79.40
71843;DHT22;59691;-36.632;-64.320;2023-03-11T05:29:45;25.40;79.30
71843;DHT22;59691;-36.632;-64.320;2023-03-11T05:32:12;25.40;79.30
71843;DHT22;59691;-36.632;-64.320;2023-03-11T05:34:39;25.30;79.30
71843;DHT22;59691;-36.632;-64.320;2023-03-11T05:37:05;25.30;79.20
71843;DHT22;59691;-36.632;-64.320;2023-03-11T05:39:32;25.30;79.20
71843;DHT22;59691;-36.632;-64.320;2023-03-11T05:41:59;25.30;79.20
71843;DHT22;59691;-36.632;-64.320;2023-03-11T05:44:25;25.30;79.20
71843;DHT22;59691;-36.632;-64.320;2023-03-11T05:46:52;25.30;79.20
71843;DHT22;59691;-36.632;-64.320;2023-03-11T05:49:18;25.30;79.20
71843;DHT22;59691;-36.632;-64.320;2023-03-11T05:51:46;25.30;79.30
71843;DHT22;59691;-36.632;-64.320;2023-03-11T05:54:12;25.30;79.30
71843;DHT22;59691;-36.632;-64.320;2023-03-11T05:56:42;25.20;79.30
71843;DHT22;59691;-36.632;-64.320;2023-03-11T05:59:09;25.30;79.40
71843;DHT22;59691;-36.632;-64.320;2023-03-11T06:01:36;25.20;79.30
71843;DHT22;59691;-36.632;-64.320;2023-03-11T06:04:02;25.30;79.50
71843;DHT22;59691;-36.632;-64.320;2023-03-11T06:06:29;25.20;79.50
71843;DHT22;59691;-36.632;-64.320;2023-03-11T06:08:55;25.30;79.50
71843;DHT22;59691;-36.632;-64.320;2023-03-11T06:11:21;25.20;79.50
71843;DHT22;59691;-36.632;-64.320;2023-03-11T06:13:52;25.20;79.60
71843;DHT22;59691;-36.632;-64.320;2023-03-11T06:16:21;25.20;79.70
71843;DHT22;59691;-36.632;-64.320;2023-03-11T06:18:48;25.20;79.70
71843;DHT22;59691;-36.632;-64.320;2023-03-11T06:21:21;25.20;79.80
71843;DHT22;59691;-36.632;-64.320;2023-03-11T06:23:48;25.20;79.80
71843;DHT22;59691;-36.632;-64.320;2023-03-11T06:26:15;25.20;79.90
71843;DHT22;59691;-36.632;-64.320;2023-03-11T06:28:42;25.20;80.00
71843;DHT22;59691;-36.632;-64.320;2023-03-11T06:31:10;25.20;80.00
71843;DHT22;59691;-36.632;-64.320;2023-03-11T06:33:36;25.20;80.00
71843;DHT22;59691;-36.632;-64.320;2023-03-11T06:36:03;25.20;80.10
71843;DHT22;59691;-36.632;-64.320;2023-03-11T06:38:30;25.20;80.90
71843;DHT22;59691;-36.632;-64.320;2023-03-11T06:41:00;25.20;80.30
71843;DHT22;59691;-36.632;-64.320;2023-03-11T06:43:27;25.20;81.00
71843;DHT22;59691;-36.632;-64.320;2023-03-11T06:45:53;25.20;80.30
71843;DHT22;59691;-36.632;-64.320;2023-03-11T06:48:20;25.20;80.40
71843;DHT22;59691;-36.632;-64.320;2023-03-11T06:50:53;25.20;80.50
71843;DHT22;59691;-36.632;-64.320;2023-03-11T06:53:20;25.10;80.40
71843;DHT22;59691;-36.632;-64.320;2023-03-11T06:55:56;25.20;80.60
71843;DHT22;59691;-36.632;-64.320;2023-03-11T06:58:22;25.10;80.50
71843;DHT22;59691;-36.632;-64.320;2023-03-11T07:00:49;25.10;80.60
71843;DHT22;59691;-36.632;-64.320;2023-03-11T07:03:15;25.10;80.10
71843;DHT22;59691;-36.632;-64.320;2023-03-11T07:05:41;25.20;80.80
71843;DHT22;59691;-36.632;-64.320;2023-03-11T07:08:08;25.10;80.80
71843;DHT22;59691;-36.632;-64.320;2023-03-11T07:10:34;25.10;80.80
71843;DHT22;59691;-36.632;-64.320;2023-03-11T07:13:00;25.10;80.90
71843;DHT22;59691;-36.632;-64.320;2023-03-11T07:15:27;25.10;81.00
71843;DHT22;59691;-36.632;-64.320;2023-03-11T07:17:53;25.10;81.00
71843;DHT22;59691;-36.632;-64.320;2023-03-11T07:20:19;25.10;81.00
71843;DHT22;59691;-36.632;-64.320;2023-03-11T07:22:46;25.10;81.10
71843;DHT22;59691;-36.632;-64.320;2023-03-11T07:25:12;25.10;81.20
71843;DHT22;59691;-36.632;-64.320;2023-03-11T07:27:39;25.10;81.30
71843;DHT22;59691;-36.632;-64.320;2023-03-11T07:30:06;25.10;81.30
71843;DHT22;59691;-36.632;-64.320;2023-03-11T07:32:32;25.00;81.30
71843;DHT22;59691;-36.632;-64.320;2023-03-11T07:34:58;25.00;81.50
71843;DHT22;59691;-36.632;-64.320;2023-03-11T07:37:25;25.00;81.50
71843;DHT22;59691;-36.632;-64.320;2023-03-11T07:39:51;25.10;81.60
71843;DHT22;59691;-36.632;-64.320;2023-03-11T07:42:17;25.00;81.60
71843;DHT22;59691;-36.632;-64.320;2023-03-11T07:44:44;25.00;81.60
71843;DHT22;59691;-36.632;-64.320;2023-03-11T07:47:10;25.00;81.70
71843;DHT22;59691;-36.632;-64.320;2023-03-11T07:49:36;25.00;81.70
71843;DHT22;59691;-36.632;-64.320;2023-03-11T07:52:03;25.00;81.80
71843;DHT22;59691;-36.632;-64.320;2023-03-11T07:54:29;25.00;81.80
71843;DHT22;59691;-36.632;-64.320;2023-03-11T07:56:55;25.00;81.90
71843;DHT22;59691;-36.632;-64.320;2023-03-11T07:59:22;25.00;82.00
71843;DHT22;59691;-36.632;-64.320;2023-03-11T08:01:48;25.00;82.00
71843;DHT22;59691;-36.632;-64.320;2023-03-11T08:04:15;25.00;82.00
71843;DHT22;59691;-36.632;-64.320;2023-03-11T08:06:43;25.00;82.10
71843;DHT22;59691;-36.632;-64.320;2023-03-11T08:09:10;25.00;82.20
71843;DHT22;59691;-36.632;-64.320;2023-03-11T08:11:37;24.90;82.10
71843;DHT22;59691;-36.632;-64.320;2023-03-11T08:14:03;25.00;82.20
71843;DHT22;59691;-36.632;-64.320;2023-03-11T08:16:30;25.00;82.30
71843;DHT22;59691;-36.632;-64.320;2023-03-11T08:18:56;24.90;82.20
71843;DHT22;59691;-36.632;-64.320;2023-03-11T08:21:24;25.00;82.30
71843;DHT22;59691;-36.632;-64.320;2023-03-11T08:23:51;25.00;82.40
71843;DHT22;59691;-36.632;-64.320;2023-03-11T08:26:18;24.90;82.30
71843;DHT22;59691;-36.632;-64.320;2023-03-11T08:28:45;24.90;82.30
71843;DHT22;59691;-36.632;-64.320;2023-03-11T08:31:13;24.90;82.40
71843;DHT22;59691;-36.632;-64.320;2023-03-11T08:33:40;24.90;82.40
71843;DHT22;59691;-36.632;-64.320;2023-03-11T08:36:07;24.90;82.40
71843;DHT22;59691;-36.632;-64.320;2023-03-11T08:38:33;24.90;82.40
71843;DHT22;59691;-36.632;-64.320;2023-03-11T08:40:59;24.90;82.50
71843;DHT22;59691;-36.632;-64.320;2023-03-11T08:43:26;24.90;82.00
71843;DHT22;59691;-36.632;-64.320;2023-03-11T08:45:52;24.90;82.60
71843;DHT22;59691;-36.632;-64.320;2023-03-11T08:48:19;24.90;82.60
71843;DHT22;59691;-36.632;-64.320;2023-03-11T08:50:45;24.90;83.30
71843;DHT22;59691;-36.632;-64.320;2023-03-11T08:53:11;24.90;82.60
71843;DHT22;59691;-36.632;-64.320;2023-03-11T08:55:38;24.90;82.60
71843;DHT22;59691;-36.632;-64.320;2023-03-11T08:58:04;24.90;82.60
71843;DHT22;59691;-36.632;-64.320;2023-03-11T09:00:30;24.90;82.70
71843;DHT22;59691;-36.632;-64.320;2023-03-11T09:02:57;24.90;82.80
71843;DHT22;59691;-36.632;-64.320;2023-03-11T09:05:23;24.90;82.70
71843;DHT22;59691;-36.632;-64.320;2023-03-11T09:07:50;24.90;82.70
71843;DHT22;59691;-36.632;-64.320;2023-03-11T09:10:16;24.80;82.70
71843;DHT22;59691;-36.632;-64.320;2023-03-11T09:12:43;24.90;82.90
71843;DHT22;59691;-36.632;-64.320;2023-03-11T09:15:09;24.80;82.80
71843;DHT22;59691;-36.632;-64.320;2023-03-11T09:17:36;24.80;82.90
71843;DHT22;59691;-36.632;-64.320;2023-03-11T09:20:03;24.80;82.90
71843;DHT22;59691;-36.632;-64.320;2023-03-11T09:22:29;24.80;83.00
71843;DHT22;59691;-36.632;-64.320;2023-03-11T09:24:56;24.80;83.00
71843;DHT22;59691;-36.632;-64.320;2023-03-11T09:27:22;24.80;83.10
71843;DHT22;59691;-36.632;-64.320;2023-03-11T09:29:49;24.80;83.10
71843;DHT22;59691;-36.632;-64.320;2023-03-11T09:32:15;24.80;82.60
71843;DHT22;59691;-36.632;-64.320;2023-03-11T09:34:41;24.80;83.20
71843;DHT22;59691;-36.632;-64.320;2023-03-11T09:37:08;24.80;83.20
71843;DHT22;59691;-36.632;-64.320;2023-03-11T09:39:34;24.80;83.20
71843;DHT22;59691;-36.632;-64.320;2023-03-11T09:42:02;24.80;83.20
71843;DHT22;59691;-36.632;-64.320;2023-03-11T09:52:24;24.70;83.20
71843;DHT22;59691;-36.632;-64.320;2023-03-11T09:54:54;24.70;83.30
71843;DHT22;59691;-36.632;-64.320;2023-03-11T09:57:25;24.70;83.40
71843;DHT22;59691;-36.632;-64.320;2023-03-11T09:59:52;24.70;83.40
71843;DHT22;59691;-36.632;-64.320;2023-03-11T10:02:21;24.70;83.40
71843;DHT22;59691;-36.632;-64.320;2023-03-11T10:07:15;24.70;83.40
71843;DHT22;59691;-36.632;-64.320;2023-03-11T10:09:53;24.70;83.40
71843;DHT22;59691;-36.632;-64.320;2023-03-11T10:12:34;24.70;83.50
71843;DHT22;59691;-36.632;-64.320;2023-03-11T10:25:49;24.60;83.60
71843;DHT22;59691;-36.632;-64.320;2023-03-11T10:28:18;24.60;83.70
71843;DHT22;59691;-36.632;-64.320;2023-03-11T10:31:02;24.70;83.80
71843;DHT22;59691;-36.632;-64.320;2023-03-11T10:33:41;24.60;83.80
71843;DHT22;59691;-36.632;-64.320;2023-03-11T10:36:10;24.60;83.90
71843;DHT22;59691;-36.632;-64.320;2023-03-11T10:38:46;24.60;84.00
71843;DHT22;59691;-36.632;-64.320;2023-03-11T10:43:40;24.60;84.20
71843;DHT22;59691;-36.632;-64.320;2023-03-11T10:46:17;24.60;84.20
71843;DHT22;59691;-36.632;-64.320;2023-03-11T10:48:44;24.60;84.20
71843;DHT22;59691;-36.632;-64.320;2023-03-11T10:51:17;24.60;84.30
71843;DHT22;59691;-36.632;-64.320;2023-03-11T10:53:52;24.60;84.30
71843;DHT22;59691;-36.632;-64.320;2023-03-11T10:58:51;24.60;84.40
71843;DHT22;59691;-36.632;-64.320;2023-03-11T11:01:17;24.60;84.50
71843;DHT22;59691;-36.632;-64.320;2023-03-11T11:03:50;24.60;84.60
71843;DHT22;59691;-36.632;-64.320;2023-03-11T11:11:36;24.60;84.90
71843;DHT22;59691;-36.632;-64.320;2023-03-11T11:14:04;24.60;85.00
71843;DHT22;59691;-36.632;-64.320;2023-03-11T11:16:32;24.60;85.20
71843;DHT22;59691;-36.632;-64.320;2023-03-11T11:21:30;24.60;85.60
71843;DHT22;59691;-36.632;-64.320;2023-03-11T11:26:26;24.60;86.00
71843;DHT22;59691;-36.632;-64.320;2023-03-11T11:31:32;24.70;86.50
71843;DHT22;59691;-36.632;-64.320;2023-03-11T11:33:58;24.70;86.70
71843;DHT22;59691;-36.632;-64.320;2023-03-11T11:36:27;24.70;87.00
71843;DHT22;59691;-36.632;-64.320;2023-03-11T11:38:54;24.70;87.20
71843;DHT22;59691;-36.632;-64.320;2023-03-11T11:41:22;24.70;87.50
71843;DHT22;59691;-36.632;-64.320;2023-03-11T11:48:59;24.80;88.40
71843;DHT22;59691;-36.632;-64.320;2023-03-11T11:51:31;24.80;88.60
71843;DHT22;59691;-36.632;-64.320;2023-03-11T11:54:06;24.80;89.00
71843;DHT22;59691;-36.632;-64.320;2023-03-11T11:56:35;24.80;89.10
71843;DHT22;59691;-36.632;-64.320;2023-03-11T11:59:01;24.80;89.50
71843;DHT22;59691;-36.632;-64.320;2023-03-11T12:04:01;24.90;90.10
71843;DHT22;59691;-36.632;-64.320;2023-03-11T12:06:38;24.90;90.10
71843;DHT22;59691;-36.632;-64.320;2023-03-11T12:11:46;24.90;90.30
71843;DHT22;59691;-36.632;-64.320;2023-03-11T12:16:47;24.90;90.60
71843;DHT22;59691;-36.632;-64.320;2023-03-11T12:22:01;25.00;90.50
71843;DHT22;59691;-36.632;-64.320;2023-03-11T12:29:48;25.00;90.60
71843;DHT22;59691;-36.632;-64.320;2023-03-11T12:35:20;25.00;90.90
71843;DHT22;59691;-36.632;-64.320;2023-03-11T12:46:06;25.10;91.20
71843;DHT22;59691;-36.632;-64.320;2023-03-11T12:50:59;25.10;91.20
71843;DHT22;59691;-36.632;-64.320;2023-03-11T13:01:29;25.20;91.40
71843;DHT22;59691;-36.632;-64.320;2023-03-11T13:09:15;25.30;91.60
71843;DHT22;59691;-36.632;-64.320;2023-03-11T13:11:43;25.30;91.60
71843;DHT22;59691;-36.632;-64.320;2023-03-11T13:16:45;25.40;91.70
71843;DHT22;59691;-36.632;-64.320;2023-03-11T13:21:53;25.40;91.70
71843;DHT22;59691;-36.632;-64.320;2023-03-11T13:29:23;25.50;91.90
71843;DHT22;59691;-36.632;-64.320;2023-03-11T13:31:58;25.50;91.90
71843;DHT22;59691;-36.632;-64.320;2023-03-11T13:42:16;25.60;92.00
71843;DHT22;59691;-36.632;-64.320;2023-03-11T13:44:45;25.60;92.00
71843;DHT22;59691;-36.632;-64.320;2023-03-11T13:47:13;25.70;92.00
71843;DHT22;59691;-36.632;-64.320;2023-03-11T13:52:11;25.70;92.00
71843;DHT22;59691;-36.632;-64.320;2023-03-11T13:54:43;25.70;91.90
71843;DHT22;59691;-36.632;-64.320;2023-03-11T13:57:30;25.70;92.00
71843;DHT22;59691;-36.632;-64.320;2023-03-11T14:00:02;25.70;91.90
71843;DHT22;59691;-36.632;-64.320;2023-03-11T14:02:28;25.80;92.00
71843;DHT22;59691;-36.632;-64.320;2023-03-11T14:05:11;25.80;91.90
71843;DHT22;59691;-36.632;-64.320;2023-03-11T14:07:38;25.80;91.90
71843;DHT22;59691;-36.632;-64.320;2023-03-11T14:12:37;25.80;91.90
71843;DHT22;59691;-36.632;-64.320;2023-03-11T14:15:04;25.80;91.80
71843;DHT22;59691;-36.632;-64.320;2023-03-11T14:17:32;25.90;91.90
71843;DHT22;59691;-36.632;-64.320;2023-03-11T14:20:05;25.90;91.80
71843;DHT22;59691;-36.632;-64.320;2023-03-11T14:22:31;25.90;91.70
71843;DHT22;59691;-36.632;-64.320;2023-03-11T14:25:04;25.90;91.70
71843;DHT22;59691;-36.632;-64.320;2023-03-11T14:27:32;25.90;91.60
71843;DHT22;59691;-36.632;-64.320;2023-03-11T14:29:59;25.90;91.60
71843;DHT22;59691;-36.632;-64.320;2023-03-11T14:32:29;25.90;91.50
71843;DHT22;59691;-36.632;-64.320;2023-03-11T14:34:56;26.00;91.50
71843;DHT22;59691;-36.632;-64.320;2023-03-11T14:37:29;26.00;91.50
71843;DHT22;59691;-36.632;-64.320;2023-03-11T14:39:56;26.00;91.50
71843;DHT22;59691;-36.632;-64.320;2023-03-11T14:42:24;26.00;91.40
71843;DHT22;59691;-36.632;-64.320;2023-03-11T14:49:50;26.10;91.40
71843;DHT22;59691;-36.632;-64.320;2023-03-11T14:52:21;26.10;91.30
71843;DHT22;59691;-36.632;-64.320;2023-03-11T14:54:50;26.10;91.30
71843;DHT22;59691;-36.632;-64.320;2023-03-11T14:57:21;26.20;91.30
71843;DHT22;59691;-36.632;-64.320;2023-03-11T14:59:48;26.20;91.20
71843;DHT22;59691;-36.632;-64.320;2023-03-11T15:04:54;26.20;91.10
71843;DHT22;59691;-36.632;-64.320;2023-03-11T15:07:21;26.20;91.10
71843;DHT22;59691;-36.632;-64.320;2023-03-11T15:09:48;26.30;91.10
71843;DHT22;59691;-36.632;-64.320;2023-03-11T15:12:39;26.30;91.00
71843;DHT22;59691;-36.632;-64.320;2023-03-11T15:15:20;26.30;91.00
71843;DHT22;59691;-36.632;-64.320;2023-03-11T15:17:53;26.30;90.90
71843;DHT22;59691;-36.632;-64.320;2023-03-11T15:23:02;26.40;90.90
71843;DHT22;59691;-36.632;-64.320;2023-03-11T15:25:30;26.40;90.90
71843;DHT22;59691;-36.632;-64.320;2023-03-11T15:27:57;26.40;90.80
71843;DHT22;59691;-36.632;-64.320;2023-03-11T15:30:25;26.50;90.80
71843;DHT22;59691;-36.632;-64.320;2023-03-11T15:32:52;26.50;90.80
71843;DHT22;59691;-36.632;-64.320;2023-03-11T15:37:46;26.50;90.70
71843;DHT22;59691;-36.632;-64.320;2023-03-11T15:40:26;26.60;90.70
71843;DHT22;59691;-36.632;-64.320;2023-03-11T15:45:51;26.60;90.50
71843;DHT22;59691;-36.632;-64.320;2023-03-11T15:48:19;26.60;90.50
71843;DHT22;59691;-36.632;-64.320;2023-03-11T15:50:52;26.60;90.40
71843;DHT22;59691;-36.632;-64.320;2023-03-11T15:53:19;26.70;90.50
71843;DHT22;59691;-36.632;-64.320;2023-03-11T15:55:46;26.70;90.80
71843;DHT22;59691;-36.632;-64.320;2023-03-11T15:58:15;26.70;90.40
71843;DHT22;59691;-36.632;-64.320;2023-03-11T16:00:45;26.80;90.40
71843;DHT22;59691;-36.632;-64.320;2023-03-11T16:03:12;26.80;90.30
71843;DHT22;59691;-36.632;-64.320;2023-03-11T16:05:38;26.80;90.30
71843;DHT22;59691;-36.632;-64.320;2023-03-11T16:08:04;26.90;90.40
71843;DHT22;59691;-36.632;-64.320;2023-03-11T16:10:31;26.90;90.00
71843;DHT22;59691;-36.632;-64.320;2023-03-11T16:12:57;26.90;89.80
71843;DHT22;59691;-36.632;-64.320;2023-03-11T16:15:27;27.00;89.80
71843;DHT22;59691;-36.632;-64.320;2023-03-11T16:17:55;27.00;89.70
71843;DHT22;59691;-36.632;-64.320;2023-03-11T16:20:22;27.00;89.50
71843;DHT22;59691;-36.632;-64.320;2023-03-11T16:27:52;27.10;88.90
71843;DHT22;59691;-36.632;-64.320;2023-03-11T16:30:18;27.20;88.90
71843;DHT22;59691;-36.632;-64.320;2023-03-11T16:32:45;27.20;88.80
71843;DHT22;59691;-36.632;-64.320;2023-03-11T16:35:14;27.20;88.80
71843;DHT22;59691;-36.632;-64.320;2023-03-11T16:37:41;27.20;88.60
71843;DHT22;59691;-36.632;-64.320;2023-03-11T16:40:12;27.30;88.50
71843;DHT22;59691;-36.632;-64.320;2023-03-11T16:42:39;27.30;88.40
71843;DHT22;59691;-36.632;-64.320;2023-03-11T16:45:06;27.30;88.30
71843;DHT22;59691;-36.632;-64.320;2023-03-11T16:47:32;27.30;88.00
71843;DHT22;59691;-36.632;-64.320;2023-03-11T16:49:59;27.40;88.60
71843;DHT22;59691;-36.632;-64.320;2023-03-11T16:52:25;27.40;87.90
71843;DHT22;59691;-36.632;-64.320;2023-03-11T16:54:51;27.40;87.80
71843;DHT22;59691;-36.632;-64.320;2023-03-11T16:57:18;27.40;87.60
71843;DHT22;59691;-36.632;-64.320;2023-03-11T16:59:44;27.40;86.30
71843;DHT22;59691;-36.632;-64.320;2023-03-11T17:02:11;27.50;85.10
71843;DHT22;59691;-36.632;-64.320;2023-03-11T17:04:37;27.50;84.50
71843;DHT22;59691;-36.632;-64.320;2023-03-11T17:07:04;27.50;82.20
71843;DHT22;59691;-36.632;-64.320;2023-03-11T17:09:31;27.50;80.60